createdAt,value
2019-05-26T00:00:53.723Z,14.13
2019-05-26T00:03:22.241Z,12.40
2019-05-26T00:05:50.760Z,14.43
2019-05-26T00:08:19.290Z,14.85
2019-05-26T00:10:47.824Z,15.05
2019-05-26T00:13:16.337Z,16.77
2019-05-26T00:15:44.884Z,17.07
2019-05-26T00:18:13.399Z,18.27
2019-05-26T00:20:42.516Z,18.30
2019-05-26T00:23:11.153Z,19.37
2019-05-26T00:25:39.671Z,20.37
2019-05-26T00:28:08.235Z,21.00
2019-05-26T00:30:37.033Z,26.70
2019-05-26T00:33:05.535Z,24.63
2019-05-26T00:35:34.154Z,24.55
2019-05-26T00:38:02.678Z,26.65
2019-05-26T00:40:31.198Z,25.10
2019-05-26T00:42:59.809Z,23.07
2019-05-26T00:45:28.800Z,22.37
2019-05-26T00:47:57.525Z,22.80
2019-05-26T00:50:26.261Z,19.60
2019-05-26T00:52:56.727Z,26.50
2019-05-26T00:55:25.680Z,28.75
2019-05-26T00:57:54.503Z,20.27
2019-05-26T01:00:40.523Z,24.25
2019-05-26T01:03:09.922Z,27.13
2019-05-26T01:05:38.789Z,22.60
2019-05-26T01:08:09.397Z,21.82
2019-05-26T01:10:38.219Z,17.55
2019-05-26T01:13:06.951Z,24.12
2019-05-26T01:15:35.567Z,16.55
2019-05-26T01:18:04.885Z,21.15
2019-05-26T01:20:33.760Z,18.82
2019-05-26T01:23:02.467Z,16.80
2019-05-26T01:25:31.293Z,19.05
2019-05-26T01:27:59.840Z,22.60
2019-05-26T01:30:35.822Z,16.97
2019-05-26T01:33:05.058Z,16.20
2019-05-26T01:35:37.195Z,22.13
2019-05-26T01:38:20.631Z,19.50
2019-05-26T01:40:38.439Z,17.20
2019-05-26T01:43:07.536Z,20.97
2019-05-26T01:45:36.255Z,21.33
2019-05-26T01:48:06.503Z,17.92
2019-05-26T01:50:36.221Z,21.75
2019-05-26T01:53:06.309Z,18.92
2019-05-26T01:55:35.961Z,17.02
2019-05-26T01:58:05.517Z,24.63
2019-05-26T02:00:35.409Z,20.60
2019-05-26T02:03:05.531Z,17.55
2019-05-26T02:05:34.924Z,19.48
2019-05-26T02:08:04.074Z,20.12
2019-05-26T02:10:32.713Z,18.92
2019-05-26T02:13:01.516Z,21.75
2019-05-26T02:15:30.392Z,20.88
2019-05-26T02:20:39.736Z,22.87
2019-05-26T02:23:08.265Z,20.45
2019-05-26T02:25:36.995Z,22.37
2019-05-26T02:28:05.521Z,22.62
2019-05-26T02:30:34.179Z,21.80
2019-05-26T02:33:02.903Z,22.73
2019-05-26T02:35:32.022Z,19.42
2019-05-26T02:38:00.551Z,19.77
2019-05-26T02:40:29.366Z,18.62
2019-05-26T02:42:58.386Z,18.70
2019-05-26T02:45:27.819Z,18.07
2019-05-26T02:47:56.658Z,25.88
2019-05-26T02:50:25.348Z,20.37
2019-05-26T02:52:53.968Z,20.05
2019-05-26T02:55:22.683Z,17.15
2019-05-26T02:57:51.306Z,20.52
2019-05-26T03:00:41.893Z,21.35
2019-05-26T03:03:13.091Z,21.42
2019-05-26T03:05:44.032Z,17.85
2019-05-26T03:08:13.397Z,20.72
2019-05-26T03:10:42.171Z,25.12
2019-05-26T03:13:14.033Z,20.60
2019-05-26T03:15:43.887Z,23.55
2019-05-26T03:18:12.755Z,19.30
2019-05-26T03:20:41.568Z,21.12
2019-05-26T03:23:10.292Z,23.67
2019-05-26T03:25:39.130Z,24.47
2019-05-26T03:28:07.950Z,26.02
2019-05-26T03:30:36.457Z,26.65
2019-05-26T03:33:05.328Z,26.35
2019-05-26T03:35:33.805Z,22.58
2019-05-26T03:38:02.668Z,29.05
2019-05-26T03:40:31.289Z,22.37
2019-05-26T03:42:59.889Z,23.30
2019-05-26T03:46:02.701Z,26.73
2019-05-26T03:48:31.251Z,25.30
2019-05-26T03:50:59.870Z,24.43
2019-05-26T03:53:28.387Z,23.05
2019-05-26T03:55:56.926Z,30.27
2019-05-26T03:58:25.448Z,26.52
2019-05-26T04:00:54.062Z,30.35
2019-05-26T04:03:22.799Z,26.25
2019-05-26T04:05:51.308Z,29.27
2019-05-26T04:08:19.841Z,25.50
2019-05-26T04:10:48.525Z,28.02
2019-05-26T04:13:17.149Z,31.55
2019-05-26T04:15:45.666Z,31.45
2019-05-26T04:18:14.365Z,36.85
2019-05-26T04:20:45.801Z,31.77
2019-05-26T04:23:13.312Z,28.27
2019-05-26T04:25:42.079Z,34.78
2019-05-26T04:28:10.595Z,35.33
2019-05-26T04:30:39.221Z,35.65
2019-05-26T04:33:07.764Z,32.23
2019-05-26T04:35:36.274Z,33.35
2019-05-26T04:38:04.897Z,37.58
2019-05-26T04:40:33.631Z,32.28
2019-05-26T04:43:02.667Z,40.05
2019-05-26T04:45:31.279Z,41.15
2019-05-26T04:47:59.826Z,44.65
2019-05-26T04:50:28.477Z,43.15
2019-05-26T04:53:06.253Z,43.13
2019-05-26T04:55:27.428Z,46.58
2019-05-26T04:57:55.959Z,45.98
2019-05-26T05:00:24.564Z,45.05
2019-05-26T05:02:53.228Z,48.63
2019-05-26T05:05:21.858Z,46.05
2019-05-26T05:07:50.385Z,47.00
2019-05-26T05:10:19.012Z,46.28
2019-05-26T05:12:47.534Z,46.00
2019-05-26T05:15:16.250Z,48.17
2019-05-26T05:17:44.800Z,51.00
2019-05-26T05:20:13.723Z,45.67
2019-05-26T05:22:42.360Z,51.98
2019-05-26T05:25:14.932Z,47.67
2019-05-26T05:27:41.741Z,44.83
2019-05-26T05:30:11.080Z,45.88
2019-05-26T05:32:39.829Z,52.38
2019-05-26T05:35:09.059Z,44.77
2019-05-26T05:37:37.789Z,42.48
2019-05-26T05:40:07.224Z,45.90
2019-05-26T05:42:35.859Z,43.63
2019-05-26T05:45:05.592Z,41.28
2019-05-26T05:47:34.247Z,38.80
2019-05-26T05:50:03.592Z,47.40
2019-05-26T05:52:32.106Z,41.10
2019-05-26T05:55:00.800Z,46.50
2019-05-26T05:57:29.435Z,43.28
2019-05-26T05:59:57.951Z,42.33
2019-05-26T06:02:26.601Z,42.45
2019-05-26T06:04:55.122Z,42.20
2019-05-26T06:07:23.645Z,48.35
2019-05-26T06:09:52.198Z,46.92
2019-05-26T06:12:20.732Z,47.10
2019-05-26T06:14:49.255Z,46.20
2019-05-26T06:17:17.803Z,51.60
2019-05-26T06:19:46.364Z,52.50
2019-05-26T06:22:14.971Z,57.03
2019-05-26T06:24:43.525Z,57.45
2019-05-26T06:27:12.054Z,56.10
2019-05-26T06:29:40.577Z,63.63
2019-05-26T06:32:09.583Z,55.38
2019-05-26T06:34:38.489Z,57.15
2019-05-26T06:37:07.228Z,50.88
2019-05-26T06:39:35.869Z,50.83
2019-05-26T06:42:04.631Z,47.62
2019-05-26T06:44:33.164Z,51.92
2019-05-26T06:47:01.719Z,44.95
2019-05-26T06:49:30.254Z,48.87
2019-05-26T06:51:58.784Z,41.80
2019-05-26T06:54:27.484Z,43.68
2019-05-26T06:56:55.993Z,43.30
2019-05-26T06:59:24.517Z,38.92
2019-05-26T07:01:53.375Z,38.90
2019-05-26T07:04:21.897Z,35.00
2019-05-26T07:06:50.687Z,38.67
2019-05-26T07:09:19.424Z,38.88
2019-05-26T07:11:55.916Z,31.37
2019-05-26T07:14:18.396Z,33.75
2019-05-26T07:16:46.948Z,35.78
2019-05-26T07:19:15.519Z,33.18
2019-05-26T07:21:44.035Z,34.40
2019-05-26T07:24:12.681Z,34.27
2019-05-26T07:26:41.325Z,33.35
2019-05-26T07:29:09.899Z,33.88
2019-05-26T07:31:38.681Z,31.33
2019-05-26T07:34:07.218Z,29.37
2019-05-26T07:36:35.732Z,32.98
2019-05-26T07:39:06.892Z,31.35
2019-05-26T07:41:35.412Z,27.55
2019-05-26T07:44:04.157Z,25.72
2019-05-26T07:46:32.908Z,29.90
2019-05-26T07:49:01.464Z,30.05
2019-05-26T07:51:30.180Z,27.48
2019-05-26T07:53:58.811Z,29.77
2019-05-26T07:56:27.365Z,29.23
2019-05-26T07:58:55.898Z,24.77
2019-05-26T08:01:24.741Z,26.95
2019-05-26T08:03:53.284Z,26.68
2019-05-26T08:06:21.902Z,23.00
2019-05-26T08:08:50.561Z,21.57
2019-05-26T08:11:19.072Z,25.80
2019-05-26T08:13:47.596Z,21.37
2019-05-26T08:16:16.135Z,18.42
2019-05-26T08:18:44.664Z,18.50
2019-05-26T08:21:13.293Z,21.70
2019-05-26T08:23:41.873Z,20.10
2019-05-26T08:26:11.415Z,19.00
2019-05-26T08:28:39.960Z,16.93
2019-05-26T08:31:08.495Z,17.20
2019-05-26T08:33:37.044Z,17.42
2019-05-26T08:36:06.022Z,19.23
2019-05-26T08:38:34.573Z,22.20
2019-05-26T08:41:03.083Z,16.80
2019-05-26T08:43:31.606Z,18.48
2019-05-26T08:46:00.168Z,19.77
2019-05-26T08:48:28.792Z,17.48
2019-05-26T08:50:57.302Z,18.27
2019-05-26T08:53:25.844Z,19.62
2019-05-26T08:55:54.362Z,14.38
2019-05-26T08:58:22.986Z,16.87
2019-05-26T09:00:51.631Z,12.18
2019-05-26T09:03:20.140Z,15.58
2019-05-26T09:05:48.686Z,15.55
2019-05-26T09:08:17.188Z,16.80
2019-05-26T09:10:45.740Z,14.13
2019-05-26T09:13:14.256Z,15.65
2019-05-26T09:15:42.910Z,14.00
2019-05-26T09:18:11.515Z,13.93
2019-05-26T09:20:40.036Z,17.07
2019-05-26T09:23:08.676Z,11.45
2019-05-26T09:25:37.204Z,10.82
2019-05-26T09:28:05.945Z,11.88
2019-05-26T09:30:34.475Z,11.60
2019-05-26T09:33:03.201Z,10.55
2019-05-26T09:35:31.729Z,12.00
2019-05-26T09:38:00.264Z,11.57
2019-05-26T09:40:28.992Z,19.92
2019-05-26T09:42:57.522Z,12.65
2019-05-26T09:45:26.540Z,9.30
2019-05-26T09:47:55.147Z,11.83
2019-05-26T09:50:23.879Z,10.08
2019-05-26T09:52:52.535Z,10.53
2019-05-26T09:55:21.347Z,8.80
2019-05-26T09:57:49.982Z,11.30
2019-05-26T10:00:20.330Z,15.55
2019-05-26T10:02:48.961Z,16.10
2019-05-26T10:05:17.490Z,10.48
2019-05-26T10:07:46.034Z,12.88
2019-05-26T10:10:15.058Z,17.73
2019-05-26T10:12:43.784Z,14.73
2019-05-26T10:15:12.851Z,10.48
2019-05-26T10:17:41.595Z,10.45
2019-05-26T10:20:11.627Z,10.88
2019-05-26T10:22:40.266Z,8.33
2019-05-26T10:25:10.693Z,10.43
2019-05-26T10:27:39.317Z,11.63
2019-05-26T10:30:08.507Z,9.30
2019-05-26T10:32:37.110Z,11.22
2019-05-26T10:35:06.157Z,10.45
2019-05-26T10:37:34.796Z,11.70
2019-05-26T10:40:04.789Z,10.43
2019-05-26T10:42:33.511Z,7.97
2019-05-26T10:45:03.033Z,12.78
2019-05-26T10:47:31.550Z,9.20
2019-05-26T10:50:00.076Z,7.40
2019-05-26T10:52:28.644Z,6.87
2019-05-26T10:54:57.284Z,7.20
2019-05-26T10:57:25.818Z,7.45
2019-05-26T10:59:54.448Z,8.00
2019-05-26T11:02:23.067Z,5.90
2019-05-26T11:04:51.692Z,5.97
2019-05-26T11:07:20.312Z,6.95
2019-05-26T11:09:48.847Z,6.28
2019-05-26T11:12:17.376Z,8.33
2019-05-26T11:14:45.929Z,7.35
2019-05-26T11:17:14.478Z,8.95
2019-05-26T11:19:43.016Z,5.20
2019-05-26T11:22:11.657Z,6.42
2019-05-26T11:24:40.251Z,4.95
2019-05-26T11:27:12.590Z,8.60
2019-05-26T11:29:39.392Z,5.50
2019-05-26T11:32:08.008Z,4.22
2019-05-26T11:34:36.529Z,3.80
2019-05-26T11:37:05.283Z,5.03
2019-05-26T11:39:33.813Z,7.45
2019-05-26T11:42:12.899Z,6.78
2019-05-26T11:44:33.107Z,3.87
2019-05-26T11:47:01.630Z,5.30
2019-05-26T11:49:30.209Z,3.42
2019-05-26T11:51:58.762Z,4.42
2019-05-26T11:54:27.366Z,4.78
2019-05-26T11:56:55.971Z,6.12
2019-05-26T11:59:24.507Z,5.37
2019-05-26T12:01:53.230Z,5.15
2019-05-26T12:04:21.752Z,5.55
2019-05-26T12:06:50.370Z,6.00
2019-05-26T12:09:18.896Z,6.58
2019-05-26T12:11:47.488Z,5.95
2019-05-26T12:14:16.046Z,17.05
2019-05-26T12:16:44.559Z,4.28
2019-05-26T12:19:13.204Z,6.78
2019-05-26T12:21:41.748Z,5.90
2019-05-26T12:24:10.276Z,6.15
2019-05-26T12:26:38.823Z,7.20
2019-05-26T12:29:07.347Z,6.28
2019-05-26T12:31:35.872Z,5.40
2019-05-26T12:34:04.495Z,8.25
2019-05-26T12:36:33.039Z,7.50
2019-05-26T12:39:01.674Z,6.95
2019-05-26T12:41:33.866Z,6.05
2019-05-26T12:44:00.655Z,6.70
2019-05-26T12:46:29.203Z,9.70
2019-05-26T12:48:57.700Z,7.50
2019-05-26T12:51:26.359Z,9.18
2019-05-26T12:53:54.878Z,6.72
2019-05-26T12:56:23.497Z,6.72
2019-05-26T12:58:52.020Z,8.05
2019-05-26T13:01:20.798Z,9.55
2019-05-26T13:03:49.308Z,11.25
2019-05-26T13:06:17.975Z,7.53
2019-05-26T13:08:46.469Z,6.70
2019-05-26T13:11:15.111Z,8.10
2019-05-26T13:13:43.644Z,9.73
2019-05-26T13:16:12.384Z,5.70
2019-05-26T13:18:40.887Z,6.20
2019-05-26T13:21:09.545Z,8.48
2019-05-26T13:23:38.178Z,7.97
2019-05-26T13:26:06.714Z,10.10
2019-05-26T13:28:35.350Z,6.83
2019-05-26T13:31:04.096Z,8.50
2019-05-26T13:33:32.609Z,7.28
2019-05-26T13:36:01.367Z,6.92
2019-05-26T13:38:29.904Z,8.68
2019-05-26T13:40:58.431Z,6.92
2019-05-26T13:43:27.072Z,6.50
2019-05-26T13:45:55.597Z,9.60
2019-05-26T13:48:24.122Z,6.80
2019-05-26T13:50:52.686Z,8.78
2019-05-26T13:53:21.191Z,4.20
2019-05-26T13:55:49.719Z,6.80
2019-05-26T13:58:18.638Z,6.05
2019-05-26T14:00:47.245Z,60.78
2019-05-26T14:03:15.872Z,12.20
2019-05-26T14:05:44.459Z,8.85
2019-05-26T14:08:12.973Z,15.00
2019-05-26T14:10:41.696Z,12.00
2019-05-26T14:13:10.646Z,30.72
2019-05-26T14:15:39.577Z,24.55
2019-05-26T14:18:08.334Z,91.45
2019-05-26T14:20:38.473Z,94.17
2019-05-26T14:23:08.523Z,284.40
2019-05-26T14:25:37.351Z,25.75
2019-05-26T14:28:06.797Z,11.88
2019-05-26T14:30:35.644Z,10.72
2019-05-26T14:33:04.760Z,4.92
2019-05-26T14:35:33.636Z,5.65
2019-05-26T14:38:02.346Z,4.75
2019-05-26T14:40:31.076Z,4.28
2019-05-26T14:42:59.823Z,5.28
2019-05-26T14:45:28.572Z,5.28
2019-05-26T14:47:57.275Z,5.03
2019-05-26T14:50:26.152Z,5.70
2019-05-26T14:52:54.749Z,6.22
2019-05-26T14:55:23.236Z,6.45
2019-05-26T14:57:51.993Z,6.37
2019-05-26T15:00:21.208Z,5.95
2019-05-26T15:02:49.802Z,5.87
2019-05-26T15:05:18.753Z,5.20
2019-05-26T15:07:47.492Z,4.95
2019-05-26T15:10:16.428Z,4.53
2019-05-26T15:12:45.099Z,3.98
2019-05-26T15:15:14.305Z,3.90
2019-05-26T15:17:42.944Z,5.15
2019-05-26T15:20:13.737Z,9.63
2019-05-26T15:22:42.325Z,4.70
2019-05-26T15:25:12.060Z,5.72
2019-05-26T15:27:40.712Z,4.62
2019-05-26T15:30:10.437Z,6.17
2019-05-26T15:32:38.992Z,5.00
2019-05-26T15:35:08.036Z,4.87
2019-05-26T15:37:36.694Z,6.45
2019-05-26T15:40:06.465Z,7.20
2019-05-26T15:42:35.273Z,5.10
2019-05-26T15:45:04.551Z,3.42
2019-05-26T15:47:33.064Z,3.27
2019-05-26T15:50:01.865Z,4.97
2019-05-26T15:52:30.532Z,7.30
2019-05-26T15:54:59.160Z,4.37
2019-05-26T15:57:27.988Z,6.78
2019-05-26T15:59:56.516Z,6.22
2019-05-26T16:02:25.062Z,4.15
2019-05-26T16:04:53.833Z,8.33
2019-05-26T16:07:22.466Z,5.35
2019-05-26T16:09:51.284Z,7.08
2019-05-26T16:12:19.979Z,16.35
2019-05-26T16:14:48.508Z,8.65
2019-05-26T16:17:17.305Z,5.70
2019-05-26T16:19:45.840Z,10.13
2019-05-26T16:22:14.642Z,6.50
2019-05-26T16:24:43.209Z,6.33
2019-05-26T16:27:19.143Z,6.65
2019-05-26T16:29:42.264Z,5.40
2019-05-26T16:32:10.997Z,9.05
2019-05-26T16:34:39.628Z,6.75
2019-05-26T16:37:08.379Z,9.03
2019-05-26T16:39:37.595Z,8.98
2019-05-26T16:42:06.653Z,7.72
2019-05-26T16:44:35.183Z,5.17
2019-05-26T16:47:03.745Z,7.72
2019-05-26T16:49:31.911Z,7.33
2019-05-26T16:52:00.308Z,6.70
2019-05-26T16:54:28.773Z,7.97
2019-05-26T16:56:57.643Z,9.50
2019-05-26T16:59:26.164Z,12.20
2019-05-26T17:01:54.880Z,6.17
2019-05-26T17:04:23.618Z,5.05
2019-05-26T17:06:52.293Z,6.60
2019-05-26T17:09:23.106Z,6.92
2019-05-26T17:11:51.658Z,4.80
2019-05-26T17:14:20.395Z,7.40
2019-05-26T17:16:49.021Z,11.10
2019-05-26T17:19:17.831Z,7.62
2019-05-26T17:21:46.574Z,8.40
2019-05-26T17:24:15.101Z,9.70
2019-05-26T17:26:43.745Z,6.12
2019-05-26T17:29:12.419Z,5.45
2019-05-26T17:31:41.019Z,6.67
2019-05-26T17:34:09.911Z,6.97
2019-05-26T17:36:38.436Z,7.85
2019-05-26T17:39:07.647Z,7.92
2019-05-26T17:41:36.448Z,4.85
2019-05-26T17:44:05.237Z,9.08
2019-05-26T17:46:34.077Z,7.65
2019-05-26T17:49:02.823Z,7.40
2019-05-26T17:51:31.668Z,6.90
2019-05-26T17:54:00.339Z,6.53
2019-05-26T17:56:29.066Z,9.30
2019-05-26T17:58:57.703Z,8.05
2019-05-26T18:01:26.229Z,5.45
2019-05-26T18:03:55.047Z,4.42
2019-05-26T18:06:23.571Z,9.25
2019-05-26T18:08:52.097Z,5.58
2019-05-26T18:11:20.814Z,6.95
2019-05-26T18:13:49.363Z,4.25
2019-05-26T18:16:18.229Z,4.65
2019-05-26T18:18:46.954Z,7.03
2019-05-26T18:21:15.532Z,5.75
2019-05-26T18:23:44.058Z,9.43
2019-05-26T18:26:12.741Z,5.05
2019-05-26T18:28:41.570Z,6.45
2019-05-26T18:31:10.096Z,5.92
2019-05-26T18:33:38.781Z,7.53
2019-05-26T18:36:07.395Z,7.30
2019-05-26T18:38:35.940Z,6.62
2019-05-26T18:41:04.782Z,7.72
2019-05-26T18:43:33.317Z,5.90
2019-05-26T18:46:01.962Z,8.08
2019-05-26T18:48:30.640Z,5.60
2019-05-26T18:50:59.332Z,7.37
2019-05-26T18:53:29.738Z,7.15
2019-05-26T18:55:59.126Z,8.05
2019-05-26T18:58:27.707Z,4.67
2019-05-26T19:00:56.336Z,5.80
2019-05-26T19:03:25.074Z,6.97
2019-05-26T19:05:53.815Z,9.78
2019-05-26T19:08:22.526Z,12.28
2019-05-26T19:10:51.304Z,14.63
2019-05-26T19:13:19.869Z,8.83
2019-05-26T19:15:48.517Z,7.70
2019-05-26T19:18:20.174Z,9.50
2019-05-26T19:20:47.867Z,8.20
2019-05-26T19:23:16.500Z,7.58
2019-05-26T19:25:45.145Z,11.25
2019-05-26T19:28:13.775Z,8.53
2019-05-26T19:30:45.597Z,8.48
2019-05-26T19:33:13.009Z,8.00
2019-05-26T19:35:41.546Z,8.43
2019-05-26T19:38:10.290Z,7.65
2019-05-26T19:40:38.831Z,6.78
2019-05-26T19:43:07.652Z,8.33
2019-05-26T19:45:36.325Z,10.30
2019-05-26T19:48:05.378Z,8.35
2019-05-26T19:50:33.950Z,7.80
2019-05-26T19:53:02.712Z,6.50
2019-05-26T19:55:31.419Z,9.43
2019-05-26T19:58:00.045Z,9.10
2019-05-26T20:00:28.784Z,6.25
2019-05-26T20:02:57.752Z,6.90
2019-05-26T20:05:26.579Z,10.13
2019-05-26T20:07:55.116Z,8.33
2019-05-26T20:10:23.892Z,6.75
2019-05-26T20:12:52.520Z,5.78
2019-05-26T20:15:21.244Z,7.58
2019-05-26T20:17:49.851Z,5.45
2019-05-26T20:20:18.650Z,5.08
2019-05-26T20:22:47.354Z,6.05
2019-05-26T20:25:16.106Z,5.00
2019-05-26T20:27:44.668Z,8.03
2019-05-26T20:30:13.589Z,4.40
2019-05-26T20:32:42.203Z,6.10
2019-05-26T20:35:12.856Z,5.45
2019-05-26T20:37:41.622Z,3.90
2019-05-26T20:40:11.005Z,7.78
2019-05-26T20:42:39.728Z,7.55
2019-05-26T20:45:08.959Z,5.92
2019-05-26T20:47:37.843Z,6.75
2019-05-26T20:50:06.763Z,6.30
2019-05-26T20:52:35.499Z,7.35
2019-05-26T20:55:04.358Z,6.92
2019-05-26T20:57:32.936Z,7.47
2019-05-26T21:00:02.283Z,7.25
2019-05-26T21:02:31.918Z,8.98
2019-05-26T21:05:00.562Z,6.20
2019-05-26T21:07:29.085Z,5.42
2019-05-26T21:09:57.625Z,5.30
2019-05-26T21:12:26.293Z,7.37
2019-05-26T21:14:54.865Z,5.92
2019-05-26T21:17:23.428Z,9.08
2019-05-26T21:19:52.444Z,6.20
2019-05-26T21:22:20.955Z,8.10
2019-05-26T21:24:49.503Z,5.37
2019-05-26T21:27:18.236Z,6.10
2019-05-26T21:29:47.020Z,7.08
2019-05-26T21:32:15.571Z,8.75
2019-05-26T21:34:44.755Z,8.53
2019-05-26T21:37:13.620Z,7.08
2019-05-26T21:39:42.167Z,7.65
2019-05-26T21:42:10.718Z,10.00
2019-05-26T21:44:39.225Z,8.40
2019-05-26T21:47:07.755Z,9.78
2019-05-26T21:49:36.318Z,9.68
2019-05-26T21:52:05.047Z,5.95
2019-05-26T21:54:33.850Z,7.00
2019-05-26T21:57:02.564Z,8.88
2019-05-26T21:59:31.081Z,10.03
2019-05-26T22:01:59.622Z,12.00
2019-05-26T22:04:28.158Z,6.60
2019-05-26T22:06:56.668Z,6.33
2019-05-26T22:09:25.202Z,5.62
2019-05-26T22:11:53.828Z,8.03
2019-05-26T22:14:22.352Z,7.47
2019-05-26T22:16:51.094Z,5.05
2019-05-26T22:19:19.615Z,5.42
2019-05-26T22:21:48.129Z,6.37
2019-05-26T22:24:16.969Z,5.45
2019-05-26T22:26:45.620Z,10.90
2019-05-26T22:29:14.248Z,5.20
2019-05-26T22:31:42.800Z,5.90
2019-05-26T22:34:11.417Z,7.60
2019-05-26T22:36:39.963Z,5.67
2019-05-26T22:39:08.461Z,4.87
2019-05-26T22:41:36.966Z,7.05
2019-05-26T22:44:05.482Z,5.37
2019-05-26T22:46:34.138Z,7.10
2019-05-26T22:49:02.862Z,7.37
2019-05-26T22:51:31.485Z,6.58
2019-05-26T22:54:00.029Z,10.98
2019-05-26T22:56:28.642Z,7.20
2019-05-26T22:58:57.165Z,6.75
2019-05-26T23:01:26.108Z,5.53
2019-05-26T23:03:54.729Z,4.42
2019-05-26T23:06:23.434Z,6.97
2019-05-26T23:08:51.982Z,5.72
2019-05-26T23:11:20.495Z,7.05
2019-05-26T23:13:49.106Z,8.18
2019-05-26T23:16:17.916Z,6.05
2019-05-26T23:18:46.440Z,8.25
2019-05-26T23:21:14.974Z,6.12
2019-05-26T23:23:43.623Z,5.10
2019-05-26T23:26:12.149Z,5.15
2019-05-26T23:28:40.672Z,7.75
2019-05-26T23:31:09.222Z,8.40
2019-05-26T23:33:37.741Z,4.70
2019-05-26T23:36:06.358Z,7.20
2019-05-26T23:38:35.055Z,12.45
2019-05-26T23:41:03.569Z,6.80
2019-05-26T23:43:32.186Z,6.40
2019-05-26T23:46:00.721Z,10.72
2019-05-26T23:48:29.244Z,5.58
2019-05-26T23:50:57.798Z,5.50
2019-05-26T23:53:26.466Z,6.60
2019-05-26T23:55:54.992Z,9.13
2019-05-26T23:58:23.535Z,5.35
